createdAt,value
2023-03-25T00:00:20.871Z,98641.22
2023-03-25T00:02:50.509Z,98648.06
2023-03-25T00:05:20.183Z,98652.09
2023-03-25T00:07:50.653Z,98655.03
2023-03-25T00:10:18.567Z,98652.03
2023-03-25T00:12:46.014Z,98649.56
2023-03-25T00:15:14.073Z,98651.72
2023-03-25T00:17:42.434Z,98654.34
2023-03-25T00:20:11.511Z,98652.19
2023-03-25T00:22:44.620Z,98665.47
2023-03-25T00:25:17.545Z,98653.75
2023-03-25T00:27:47.867Z,98652.78
2023-03-25T00:30:16.615Z,98656.19
2023-03-25T00:32:50.298Z,98659.56
2023-03-25T00:35:19.982Z,98654.41
2023-03-25T00:37:57.485Z,98652.53
2023-03-25T00:40:30.884Z,98654.78
2023-03-25T00:42:58.298Z,98650.94
2023-03-25T00:45:26.109Z,98651.13
2023-03-25T00:47:53.672Z,98663.25
2023-03-25T00:50:21.832Z,98648.84
2023-03-25T00:52:49.607Z,98656.41
2023-03-25T00:55:17.408Z,98653.63
2023-03-25T00:57:44.826Z,98654.75
2023-03-25T01:00:15.996Z,98649.31
2023-03-25T01:02:43.849Z,98655.78
2023-03-25T01:05:11.891Z,98650.16
2023-03-25T01:07:40.177Z,98639.84
2023-03-25T01:10:09.129Z,98650.75
2023-03-25T01:12:36.612Z,98654.06
2023-03-25T01:15:04.607Z,98656.50
2023-03-25T01:17:32.041Z,98656.22
2023-03-25T01:19:59.533Z,98665.28
2023-03-25T01:22:27.216Z,98664.41
2023-03-25T01:24:55.456Z,98666.69
2023-03-25T01:27:24.545Z,98668.28
2023-03-25T01:29:54.570Z,98671.44
2023-03-25T01:32:22.057Z,98665.09
2023-03-25T01:34:49.694Z,98674.91
2023-03-25T01:37:18.360Z,98679.03
2023-03-25T01:39:45.872Z,98679.03
2023-03-25T01:42:13.263Z,98687.75
2023-03-25T01:44:41.082Z,98683.97
2023-03-25T01:47:08.949Z,98684.63
2023-03-25T01:49:40.824Z,98685.28
2023-03-25T01:52:13.221Z,98688.19
2023-03-25T01:54:41.093Z,98690.41
2023-03-25T01:57:10.416Z,98691.97
2023-03-25T01:59:38.563Z,98678.34
2023-03-25T02:02:08.556Z,98688.63
2023-03-25T02:04:58.785Z,98696.28
2023-03-25T02:07:34.016Z,98699.34
2023-03-25T02:10:09.495Z,98698.41
2023-03-25T02:12:37.355Z,98688.22
2023-03-25T02:15:07.929Z,98680.75
2023-03-25T02:17:40.471Z,98696.72
2023-03-25T02:20:30.307Z,98688.81
2023-03-25T02:23:07.685Z,98688.66
2023-03-25T02:25:54.953Z,98689.47
2023-03-25T02:28:36.457Z,98691.31
2023-03-25T02:31:29.725Z,98680.91
2023-03-25T02:34:23.093Z,98678.22
2023-03-25T02:37:18.932Z,98670.66
2023-03-25T02:40:11.011Z,98666.63
2023-03-25T02:42:49.115Z,98667.75
2023-03-25T02:45:25.421Z,98663.19
2023-03-25T02:47:56.188Z,98665.19
2023-03-25T02:50:46.166Z,98663.09
2023-03-25T02:53:21.184Z,98663.06
2023-03-25T02:55:51.309Z,98663.66
2023-03-25T02:58:21.643Z,98667.63
2023-03-25T03:00:50.556Z,98673.63
2023-03-25T03:03:18.253Z,98676.13
2023-03-25T03:05:51.084Z,98676.50
2023-03-25T03:08:46.459Z,98672.31
2023-03-25T03:11:20.103Z,98674.69
2023-03-25T03:13:59.222Z,98670.84
2023-03-25T03:16:52.086Z,98674.44
2023-03-25T03:19:38.354Z,98676.53
2023-03-25T03:22:46.989Z,98685.62
2023-03-25T03:25:32.431Z,98689.87
2023-03-25T03:28:07.831Z,98684.09
2023-03-25T03:30:46.595Z,98685.06
2023-03-25T03:33:33.840Z,98690.37
2023-03-25T03:36:05.504Z,98687.00
2023-03-25T03:38:38.576Z,98685.47
2023-03-25T03:41:10.199Z,98697.50
2023-03-25T03:43:46.349Z,98695.38
2023-03-25T03:46:21.077Z,98701.22
2023-03-25T03:48:53.128Z,98704.91
2023-03-25T03:51:25.417Z,98703.78
2023-03-25T03:54:14.280Z,98714.78
2023-03-25T03:56:46.626Z,98714.06
2023-03-25T03:59:21.309Z,98724.88
2023-03-25T04:01:54.164Z,98728.78
2023-03-25T04:04:31.643Z,98730.09
2023-03-25T04:07:20.176Z,98729.06
2023-03-25T04:10:15.215Z,98732.28
2023-03-25T04:12:46.376Z,98733.78
2023-03-25T04:15:14.901Z,98724.69
2023-03-25T04:17:43.128Z,98739.03
2023-03-25T04:20:14.432Z,98742.56
2023-03-25T04:22:46.130Z,98746.44
2023-03-25T04:25:14.101Z,98741.56
2023-03-25T04:27:49.049Z,98736.78
2023-03-25T04:30:19.764Z,98751.00
2023-03-25T04:32:47.756Z,98744.25
2023-03-25T04:35:17.102Z,98748.12
2023-03-25T04:37:49.115Z,98746.09
2023-03-25T04:40:19.002Z,98753.53
2023-03-25T04:42:47.004Z,98760.75
2023-03-25T04:45:17.032Z,98758.91
2023-03-25T04:47:47.313Z,98764.78
2023-03-25T04:50:27.265Z,98762.44
2023-03-25T04:52:57.580Z,98771.56
2023-03-25T04:55:25.902Z,98772.72
2023-03-25T04:57:54.625Z,98771.03
2023-03-25T05:00:24.459Z,98769.19
2023-03-25T05:02:54.778Z,98779.47
2023-03-25T05:05:24.598Z,98784.72
2023-03-25T05:07:53.738Z,98777.72
2023-03-25T05:10:23.759Z,98783.84
2023-03-25T05:12:58.478Z,98790.53
2023-03-25T05:15:26.544Z,98789.06
2023-03-25T05:17:54.188Z,98793.91
2023-03-25T05:20:23.011Z,98801.31
2023-03-25T05:22:53.320Z,98795.66
2023-03-25T05:25:22.685Z,98805.16
2023-03-25T05:27:50.079Z,98802.56
2023-03-25T05:30:17.504Z,98797.56
2023-03-25T05:32:45.876Z,98801.00
2023-03-25T05:35:13.384Z,98805.41
2023-03-25T05:37:40.794Z,98805.81
2023-03-25T05:40:14.474Z,98796.97
2023-03-25T05:42:47.209Z,98791.75
2023-03-25T05:45:16.520Z,98794.13
2023-03-25T05:47:44.478Z,98796.66
2023-03-25T05:50:12.378Z,98802.03
2023-03-25T05:52:43.781Z,98802.19
2023-03-25T05:55:15.819Z,98808.94
2023-03-25T05:57:43.857Z,98808.41
2023-03-25T06:00:12.855Z,98803.22
2023-03-25T06:02:43.217Z,98812.00
2023-03-25T06:05:14.023Z,98819.75
2023-03-25T06:07:43.186Z,98827.31
2023-03-25T06:10:11.070Z,98827.63
2023-03-25T06:12:39.263Z,98827.78
2023-03-25T06:15:09.317Z,98825.78
2023-03-25T06:17:39.726Z,98817.88
2023-03-25T06:20:12.593Z,98815.53
2023-03-25T06:22:43.036Z,98819.41
2023-03-25T06:25:13.217Z,98825.91
2023-03-25T06:27:42.024Z,98825.63
2023-03-25T06:30:12.730Z,98822.78
2023-03-25T06:32:40.512Z,98823.78
2023-03-25T06:35:09.816Z,98824.12
2023-03-25T06:37:38.186Z,98833.53
2023-03-25T06:40:07.155Z,98831.38
2023-03-25T06:42:34.626Z,98828.00
2023-03-25T06:45:05.190Z,98846.56
2023-03-25T06:47:34.560Z,98843.81
2023-03-25T06:50:02.202Z,98832.88
2023-03-25T06:52:29.684Z,98835.91
2023-03-25T06:54:57.413Z,98833.50
2023-03-25T06:57:24.848Z,98829.94
2023-03-25T06:59:52.246Z,98833.91
2023-03-25T07:02:19.865Z,98839.12
2023-03-25T07:04:47.275Z,98842.16
2023-03-25T07:07:14.713Z,98843.69
2023-03-25T07:09:42.396Z,98844.03
2023-03-25T07:12:09.849Z,98840.28
2023-03-25T07:14:37.277Z,98847.56
2023-03-25T07:17:04.950Z,98853.97
2023-03-25T07:19:32.357Z,98857.50
2023-03-25T07:21:59.729Z,98852.81
2023-03-25T07:24:27.827Z,98859.50
2023-03-25T07:26:55.262Z,98848.09
2023-03-25T07:29:23.536Z,98859.72
2023-03-25T07:31:51.228Z,98872.03
2023-03-25T07:34:18.681Z,98872.16
2023-03-25T07:36:46.125Z,98872.31
2023-03-25T07:39:13.865Z,98864.94
2023-03-25T07:41:43.013Z,98854.97
2023-03-25T07:44:10.749Z,98859.50
2023-03-25T07:46:38.660Z,98854.59
2023-03-25T07:49:06.102Z,98861.44
2023-03-25T07:51:35.089Z,98861.62
2023-03-25T07:54:04.976Z,98850.91
2023-03-25T07:56:33.614Z,98854.72
2023-03-25T07:59:01.318Z,98839.66
2023-03-25T08:01:29.080Z,98846.16
2023-03-25T08:03:57.343Z,98851.66
2023-03-25T08:06:24.870Z,98859.88
2023-03-25T08:08:52.235Z,98858.00
2023-03-25T08:11:19.951Z,98859.69
2023-03-25T08:13:47.543Z,98860.84
2023-03-25T08:16:15.390Z,98858.69
2023-03-25T08:18:45.262Z,98854.50
2023-03-25T08:21:13.334Z,98858.50
2023-03-25T08:23:41.170Z,98855.00
2023-03-25T08:26:10.333Z,98855.41
2023-03-25T08:28:38.148Z,98864.28
2023-03-25T08:31:08.612Z,98852.69
2023-03-25T08:33:40.942Z,98845.59
2023-03-25T08:36:13.910Z,98847.81
2023-03-25T08:38:41.670Z,98834.84
2023-03-25T08:41:09.099Z,98831.97
2023-03-25T08:43:36.521Z,98836.84
2023-03-25T08:46:04.316Z,98836.28
2023-03-25T08:48:31.732Z,98834.13
2023-03-25T08:50:59.344Z,98843.53
2023-03-25T08:53:27.119Z,98843.16
2023-03-25T08:55:56.598Z,98848.25
2023-03-25T08:58:25.014Z,98838.25
2023-03-25T09:00:55.904Z,98843.91
2023-03-25T09:03:24.829Z,98846.22
2023-03-25T09:05:52.583Z,98831.47
2023-03-25T09:08:21.157Z,98834.06
2023-03-25T09:10:48.641Z,98841.06
2023-03-25T09:13:16.480Z,98843.41
2023-03-25T09:15:45.637Z,98840.75
2023-03-25T09:18:13.046Z,98843.59
2023-03-25T09:20:41.322Z,98845.41
2023-03-25T09:23:09.878Z,98850.84
2023-03-25T09:25:37.799Z,98858.97
2023-03-25T09:28:05.405Z,98848.47
2023-03-25T09:30:33.158Z,98850.56
2023-03-25T09:33:01.192Z,98833.53
2023-03-25T09:35:28.794Z,98844.97
2023-03-25T09:37:56.717Z,98847.38
2023-03-25T09:40:24.775Z,98841.13
2023-03-25T09:43:08.057Z,98843.25
2023-03-25T09:45:39.283Z,98847.03
2023-03-25T09:48:24.238Z,98844.53
2023-03-25T09:50:51.918Z,98850.69
2023-03-25T09:53:38.059Z,98849.03
2023-03-25T09:56:14.445Z,98849.69
2023-03-25T09:58:44.760Z,98842.13
2023-03-25T10:01:46.023Z,98854.44
2023-03-25T10:04:34.826Z,98848.13
2023-03-25T10:07:23.732Z,98857.44
2023-03-25T10:10:05.713Z,98852.88
2023-03-25T10:12:46.257Z,98870.91
2023-03-25T10:15:41.208Z,98856.94
2023-03-25T10:18:18.259Z,98862.31
2023-03-25T10:20:55.850Z,98857.28
2023-03-25T10:23:41.841Z,98851.16
2023-03-25T10:26:23.303Z,98851.84
2023-03-25T10:29:06.216Z,98840.88
2023-03-25T10:31:38.074Z,98844.63
2023-03-25T10:34:09.164Z,98849.28
2023-03-25T10:36:42.760Z,98849.09
2023-03-25T10:39:15.058Z,98837.16
2023-03-25T10:41:43.528Z,98847.19
2023-03-25T10:44:11.507Z,98843.97
2023-03-25T10:46:52.438Z,98849.75
2023-03-25T10:49:27.724Z,98845.09
2023-03-25T10:51:57.605Z,98852.34
2023-03-25T10:54:29.665Z,98857.19
2023-03-25T10:57:00.580Z,98851.72
2023-03-25T10:59:39.384Z,98858.72
2023-03-25T11:02:20.246Z,98864.78
2023-03-25T11:04:51.950Z,98863.19
2023-03-25T11:07:23.657Z,98864.94
2023-03-25T11:09:51.863Z,98857.78
2023-03-25T11:12:27.307Z,98853.06
2023-03-25T11:15:02.330Z,98861.25
2023-03-25T11:17:29.792Z,98861.22
2023-03-25T11:20:00.808Z,98853.56
2023-03-25T11:22:30.255Z,98862.47
2023-03-25T11:25:07.034Z,98866.91
2023-03-25T11:27:48.994Z,98867.91
2023-03-25T11:30:21.811Z,98879.31
2023-03-25T11:33:13.893Z,98866.56
2023-03-25T11:35:49.189Z,98867.28
2023-03-25T11:38:22.357Z,98867.94
2023-03-25T11:40:54.321Z,98872.31
2023-03-25T11:43:24.192Z,98878.22
2023-03-25T11:45:52.234Z,98874.03
2023-03-25T11:48:22.745Z,98873.66
2023-03-25T11:50:56.222Z,98857.25
2023-03-25T11:53:26.287Z,98848.59
2023-03-25T11:56:12.017Z,98858.81
2023-03-25T11:58:40.664Z,98862.88
2023-03-25T12:01:22.714Z,98862.28
2023-03-25T12:03:51.858Z,98858.13
2023-03-25T12:06:23.753Z,98847.69
2023-03-25T12:08:59.652Z,98856.59
2023-03-25T12:11:36.321Z,98858.09
2023-03-25T12:14:29.046Z,98847.84
2023-03-25T12:17:18.056Z,98851.09
2023-03-25T12:19:58.562Z,98854.16
2023-03-25T12:22:28.979Z,98842.41
2023-03-25T12:25:30.455Z,98840.25
2023-03-25T12:28:48.623Z,98824.84
2023-03-25T12:31:51.758Z,98829.72
2023-03-25T12:34:22.024Z,98818.94
2023-03-25T12:37:17.634Z,98819.78
2023-03-25T12:40:06.883Z,98816.78
2023-03-25T12:43:08.412Z,98815.78
2023-03-25T12:45:50.966Z,98803.66
2023-03-25T12:48:21.551Z,98792.94
2023-03-25T12:51:04.230Z,98803.13
2023-03-25T12:53:32.392Z,98802.03
2023-03-25T12:56:11.345Z,98791.91
2023-03-25T12:58:48.591Z,98792.84
2023-03-25T13:01:31.209Z,98795.84
2023-03-25T13:04:21.841Z,98802.19
2023-03-25T13:07:07.971Z,98796.97
2023-03-25T13:09:39.408Z,98803.63
2023-03-25T13:12:15.627Z,98805.56
2023-03-25T13:15:01.774Z,98801.59
2023-03-25T13:18:00.216Z,98807.28
2023-03-25T13:20:30.944Z,98807.13
2023-03-25T13:23:02.199Z,98802.19
2023-03-25T13:25:36.869Z,98806.38
2023-03-25T13:28:06.573Z,98805.37
2023-03-25T13:30:39.412Z,98795.84
2023-03-25T13:33:13.780Z,98795.72
2023-03-25T13:35:55.117Z,98811.72
2023-03-25T13:38:34.649Z,98789.87
2023-03-25T13:41:20.102Z,98787.88
2023-03-25T13:43:54.449Z,98788.53
2023-03-25T13:46:27.846Z,98790.09
2023-03-25T13:48:59.466Z,98792.97
2023-03-25T13:51:27.473Z,98796.31
2023-03-25T13:54:25.677Z,98805.37
2023-03-25T13:57:21.491Z,98803.81
2023-03-25T13:59:52.160Z,98802.97
2023-03-25T14:02:34.848Z,98798.53
2023-03-25T14:05:44.110Z,98803.25
2023-03-25T14:08:27.834Z,98806.75
2023-03-25T14:11:14.087Z,98807.62
2023-03-25T14:13:47.914Z,98809.28
2023-03-25T14:16:17.396Z,98808.34
2023-03-25T14:18:49.346Z,98799.72
2023-03-25T14:21:38.464Z,98806.09
2023-03-25T14:24:27.060Z,98802.59
2023-03-25T14:27:01.004Z,98801.94
2023-03-25T14:29:31.817Z,98796.37
2023-03-25T14:32:02.154Z,98792.00
2023-03-25T14:34:29.679Z,98784.16
2023-03-25T14:36:57.558Z,98797.25
2023-03-25T14:39:28.331Z,98798.56
2023-03-25T14:42:04.078Z,98789.78
2023-03-25T14:44:34.033Z,98784.09
2023-03-25T14:47:02.451Z,98785.47
2023-03-25T14:49:54.650Z,98794.66
2023-03-25T14:52:29.976Z,98792.53
2023-03-25T14:54:58.095Z,98789.03
2023-03-25T14:57:28.676Z,98776.31
2023-03-25T15:00:01.494Z,98770.53
2023-03-25T15:02:32.345Z,98780.47
2023-03-25T15:05:14.036Z,98778.84
2023-03-25T15:07:50.499Z,98780.22
2023-03-25T15:10:26.129Z,98786.63
2023-03-25T15:13:05.901Z,98790.38
2023-03-25T15:15:58.039Z,98800.69
2023-03-25T15:18:31.792Z,98790.91
2023-03-25T15:21:13.354Z,98800.62
2023-03-25T15:23:47.613Z,98804.03
2023-03-25T15:26:24.101Z,98798.53
2023-03-25T15:29:04.077Z,98794.34
2023-03-25T15:32:13.518Z,98795.50
2023-03-25T15:34:46.998Z,98799.59
2023-03-25T15:37:45.095Z,98795.69
2023-03-25T15:40:14.076Z,98801.97
2023-03-25T15:43:10.272Z,98789.34
2023-03-25T15:46:15.435Z,98782.50
2023-03-25T15:48:51.871Z,98784.47
2023-03-25T15:51:52.579Z,98790.94
2023-03-25T15:54:53.542Z,98802.72
2023-03-25T15:57:24.346Z,98787.88
2023-03-25T15:59:59.737Z,98787.63
2023-03-25T16:03:02.478Z,98778.44
2023-03-25T16:05:31.469Z,98781.06
2023-03-25T16:08:01.245Z,98780.06
2023-03-25T16:10:36.374Z,98778.94
2023-03-25T16:13:12.113Z,98780.38
2023-03-25T16:15:39.384Z,98775.81
2023-03-25T16:18:08.262Z,98780.97
2023-03-25T16:20:36.629Z,98780.31
2023-03-25T16:23:06.459Z,98774.97
2023-03-25T16:25:38.088Z,98790.53
2023-03-25T16:28:08.658Z,98786.09
2023-03-25T16:30:39.016Z,98791.78
2023-03-25T16:33:10.802Z,98794.19
2023-03-25T16:35:43.677Z,98789.75
2023-03-25T16:38:20.304Z,98793.22
2023-03-25T16:40:49.213Z,98795.16
2023-03-25T16:43:19.566Z,98797.44
2023-03-25T16:45:48.641Z,98800.50
2023-03-25T16:48:18.969Z,98799.97
2023-03-25T16:50:46.499Z,98800.31
2023-03-25T16:53:15.433Z,98803.13
2023-03-25T16:55:51.545Z,98806.75
2023-03-25T16:58:27.089Z,98809.03
2023-03-25T17:00:56.225Z,98805.19
2023-03-25T17:03:43.514Z,98794.59
2023-03-25T17:06:28.268Z,98801.41
2023-03-25T17:08:57.380Z,98796.91
2023-03-25T17:11:32.316Z,98794.59
2023-03-25T17:14:20.962Z,98802.47
2023-03-25T17:16:50.834Z,98805.06
2023-03-25T17:19:19.622Z,98810.53
2023-03-25T17:22:04.723Z,98817.16
2023-03-25T17:24:41.891Z,98815.59
2023-03-25T17:27:20.313Z,98806.63
2023-03-25T17:29:57.341Z,98817.69
2023-03-25T17:32:25.142Z,98818.25
2023-03-25T17:35:06.524Z,98817.03
2023-03-25T17:37:34.258Z,98816.44
2023-03-25T17:40:10.977Z,98824.03
2023-03-25T17:42:38.831Z,98823.59
2023-03-25T17:45:07.285Z,98822.75
2023-03-25T17:47:34.831Z,98824.25
2023-03-25T17:50:13.620Z,98830.31
2023-03-25T17:52:41.388Z,98837.47
2023-03-25T17:55:09.732Z,98836.31
2023-03-25T17:57:37.770Z,98837.78
2023-03-25T18:00:12.017Z,98840.09
2023-03-25T18:02:40.904Z,98844.19
2023-03-25T18:05:08.929Z,98854.28
2023-03-25T18:07:36.442Z,98861.44
2023-03-25T18:10:14.010Z,98854.91
2023-03-25T18:12:41.560Z,98862.38
2023-03-25T18:15:09.641Z,98863.34
2023-03-25T18:17:37.110Z,98880.28
2023-03-25T18:20:17.107Z,98874.22
2023-03-25T18:22:45.043Z,98870.69
2023-03-25T18:25:13.933Z,98871.97
2023-03-25T18:27:44.165Z,98870.44
2023-03-25T18:30:23.184Z,98879.56
2023-03-25T18:32:50.695Z,98888.34
2023-03-25T18:35:18.713Z,98880.72
2023-03-25T18:37:48.722Z,98891.06
2023-03-25T18:40:16.451Z,98891.75
2023-03-25T18:42:44.761Z,98886.16
2023-03-25T18:45:12.498Z,98900.88
2023-03-25T18:47:39.961Z,98888.50
2023-03-25T18:50:16.220Z,98907.06
2023-03-25T18:52:44.173Z,98902.31
2023-03-25T18:55:12.916Z,98912.69
2023-03-25T18:57:42.318Z,98919.78
2023-03-25T19:00:16.673Z,98917.66
2023-03-25T19:02:44.914Z,98925.31
2023-03-25T19:05:13.192Z,98925.13
2023-03-25T19:07:40.926Z,98925.87
2023-03-25T19:10:15.296Z,98938.00
2023-03-25T19:12:44.441Z,98936.03
2023-03-25T19:15:15.301Z,98938.41
2023-03-25T19:17:44.034Z,98939.69
2023-03-25T19:20:17.187Z,98938.34
2023-03-25T19:22:45.341Z,98938.19
2023-03-25T19:25:13.383Z,98941.91
2023-03-25T19:27:42.791Z,98947.78
2023-03-25T19:30:13.132Z,98950.31
2023-03-25T19:32:42.904Z,98950.13
2023-03-25T19:35:11.598Z,98959.50
2023-03-25T19:37:47.550Z,98954.59
2023-03-25T19:40:20.055Z,98954.59
2023-03-25T19:42:48.430Z,98961.62
2023-03-25T19:45:17.684Z,98965.84
2023-03-25T19:47:45.841Z,98954.13
2023-03-25T19:50:16.766Z,98969.22
2023-03-25T19:52:45.764Z,98972.87
2023-03-25T19:55:14.142Z,98965.97
2023-03-25T19:57:42.882Z,98976.75
2023-03-25T20:00:16.312Z,98990.94
2023-03-25T20:02:47.624Z,98993.13
2023-03-25T20:05:15.913Z,98980.41
2023-03-25T20:07:45.152Z,98974.94
2023-03-25T20:10:20.158Z,98962.41
2023-03-25T20:12:50.778Z,98953.59
2023-03-25T20:15:20.175Z,98953.16
2023-03-25T20:17:52.101Z,98960.84
2023-03-25T20:20:20.484Z,98961.28
2023-03-25T20:22:48.967Z,98964.50
2023-03-25T20:25:17.035Z,98961.38
2023-03-25T20:27:45.218Z,98961.06
2023-03-25T20:30:16.973Z,98957.22
2023-03-25T20:32:47.593Z,98958.97
2023-03-25T20:35:17.856Z,98956.22
2023-03-25T20:37:46.934Z,98954.31
2023-03-25T20:40:16.733Z,98953.53
2023-03-25T20:42:46.442Z,98976.38
2023-03-25T20:45:16.427Z,98988.81
2023-03-25T20:47:44.698Z,98987.25
2023-03-25T20:50:14.612Z,98985.41
2023-03-25T20:52:42.523Z,98989.53
2023-03-25T20:55:11.356Z,98995.34
2023-03-25T20:57:39.736Z,98991.22
2023-03-25T21:00:08.356Z,99002.09
2023-03-25T21:02:36.161Z,98998.03
2023-03-25T21:05:05.826Z,98991.03
2023-03-25T21:07:35.324Z,99002.25
2023-03-25T21:10:03.622Z,99008.22
2023-03-25T21:12:42.607Z,99006.84
2023-03-25T21:15:13.353Z,99000.72
2023-03-25T21:17:41.409Z,99003.06
2023-03-25T21:20:09.538Z,99004.88
2023-03-25T21:22:43.303Z,99000.50
2023-03-25T21:25:13.162Z,99007.88
2023-03-25T21:27:42.374Z,98999.91
2023-03-25T21:30:10.746Z,99001.56
2023-03-25T21:32:38.935Z,99002.81
2023-03-25T21:35:07.996Z,99007.91
2023-03-25T21:37:38.575Z,99014.59
2023-03-25T21:40:08.235Z,99012.69
2023-03-25T21:42:38.370Z,99005.22
2023-03-25T21:45:08.213Z,99018.91
2023-03-25T21:47:36.529Z,99012.38
2023-03-25T21:50:09.532Z,99011.44
2023-03-25T21:52:43.487Z,99002.75
2023-03-25T21:55:11.309Z,99011.69
2023-03-25T21:57:39.688Z,99003.06
2023-03-25T22:00:08.644Z,99002.59
2023-03-25T22:02:39.407Z,99004.09
2023-03-25T22:05:07.691Z,99010.44
2023-03-25T22:07:35.081Z,99006.00
2023-03-25T22:10:04.518Z,99008.72
2023-03-25T22:12:32.784Z,99013.06
2023-03-25T22:15:00.357Z,99019.38
2023-03-25T22:17:28.056Z,99010.59
2023-03-25T22:19:55.785Z,99011.47
2023-03-25T22:22:23.193Z,99015.69
2023-03-25T22:24:50.726Z,99012.84
2023-03-25T22:27:18.565Z,99002.31
2023-03-25T22:29:46.153Z,99005.09
2023-03-25T22:32:14.456Z,99009.19
2023-03-25T22:34:42.210Z,99016.13
2023-03-25T22:37:09.625Z,99020.34
2023-03-25T22:39:37.833Z,99008.34
2023-03-25T22:42:05.578Z,98999.72
2023-03-25T22:44:33.022Z,99016.28
2023-03-25T22:47:00.578Z,99018.25
2023-03-25T22:49:28.351Z,99016.00
2023-03-25T22:51:56.015Z,99016.00
2023-03-25T22:54:23.613Z,99019.06
2023-03-25T22:56:51.367Z,99018.06
2023-03-25T22:59:18.879Z,99025.63
2023-03-25T23:01:46.643Z,99025.75
2023-03-25T23:04:14.442Z,99033.53
2023-03-25T23:06:42.106Z,99031.66
2023-03-25T23:09:10.173Z,99034.16
2023-03-25T23:11:38.468Z,99038.16
2023-03-25T23:14:08.881Z,99036.31
2023-03-25T23:16:36.908Z,99045.63
2023-03-25T23:19:06.188Z,99057.06
2023-03-25T23:21:34.363Z,99057.75
2023-03-25T23:24:03.833Z,99055.03
2023-03-25T23:26:41.168Z,99046.31
2023-03-25T23:29:12.469Z,99043.50
2023-03-25T23:31:42.369Z,99040.56
2023-03-25T23:34:15.524Z,99045.22
2023-03-25T23:36:43.624Z,99041.56
2023-03-25T23:39:15.358Z,99046.63
2023-03-25T23:41:43.099Z,99048.47
2023-03-25T23:44:10.787Z,99051.28
2023-03-25T23:46:38.227Z,99050.59
2023-03-25T23:49:06.039Z,99049.31
2023-03-25T23:51:36.535Z,99044.62
2023-03-25T23:54:05.921Z,99047.31
2023-03-25T23:56:33.715Z,99043.66
2023-03-25T23:59:01.724Z,99036.88
